This is the latest recevied weather packets stored in our database for station/object SR9NCI. If no packets are shown the sender has not sent any weather packets the latest 1 day(s).
| Time | Temp. | Humidity | Pressure | Rain* | Wind** | Luminosity | Snow |
|---|---|---|---|---|---|---|---|
| 1778001933 | 23.89° C | - | 0 hPa | - | 4.92 m/s, 186° | - | - |
| 1778001686 | 24.44° C | - | 0 hPa | - | 2.68 m/s, 200° | - | - |
| 1778001443 | 24.44° C | - | 0 hPa | - | 3.13 m/s, 185° | - | - |
| 1778001202 | 24.44° C | - | 0 hPa | - | 4.47 m/s, 200° | - | - |
| 1778000960 | 24.44° C | - | 0 hPa | - | 4.92 m/s, 187° | - | - |
| 1778000718 | 24.44° C | - | 0 hPa | - | 4.02 m/s, 183° | - | - |
| 1778000236 | 24.44° C | - | 0 hPa | - | 5.36 m/s, 202° | - | - |
| 1777999993 | 25° C | - | 0 hPa | - | 4.92 m/s, 182° | - | - |
| 1777999511 | 25° C | - | 0 hPa | - | 5.81 m/s, 182° | - | - |
| 1777999263 | 25° C | - | 0 hPa | - | 5.36 m/s, 188° | - | - |
| 1777999020 | 25° C | - | 0 hPa | - | 7.6 m/s, 178° | - | - |
| 1777998779 | 25.56° C | - | 0 hPa | - | 8.05 m/s, 170° | - | - |
| 1777998538 | 26.67° C | - | 0 hPa | - | 5.81 m/s, 161° | - | - |
| 1777998296 | 26.67° C | - | 0 hPa | - | 4.47 m/s, 176° | - | - |
| 1777998054 | 26.67° C | - | 0 hPa | - | 6.26 m/s, 185° | - | - |
| 1777997812 | 27.22° C | - | 0 hPa | - | 5.36 m/s, 169° | - | - |
| 1777997571 | 27.22° C | - | 0 hPa | - | 6.26 m/s, 186° | - | - |
| 1777997330 | 27.78° C | - | 0 hPa | - | 6.26 m/s, 169° | - | - |
| 1777997088 | 27.22° C | - | 0 hPa | - | 4.92 m/s, 180° | - | - |
| 1777996839 | 27.78° C | - | 0 hPa | - | 6.71 m/s, 172° | - | - |
| 1777996597 | 27.22° C | - | 0 hPa | - | 7.6 m/s, 182° | - | - |
| 1777996356 | 27.22° C | - | 0 hPa | - | 8.94 m/s, 188° | - | - |
| 1777996115 | 27.22° C | - | 0 hPa | - | 6.71 m/s, 191° | - | - |
| 1777995872 | 27.78° C | - | 0 hPa | - | 4.92 m/s, 188° | - | - |
| 1777995631 | 27.78° C | - | 0 hPa | - | 4.47 m/s, 185° | - | - |
* Rain since midnight (hover to see other rain measurements)
** Current wind speed in m/s (hover to see current wind gust speed)